Time;durP1;ratioP1;P1;durP2;ratioP2;P2;SDS_P1;SDS_P2;PMS_P1;PMS_P2;Temp;Humidity;BMP_temperature;BMP_pressure;BME280_temperature;BME280_humidity;BME280_pressure;Samples;Min_cycle;Max_cycle;Signal;HPM_P1;HPM_P2
2023/07/08 00:00:18;;;;;;;26.08;24.17;;;15.90;64.10;;;;;;5050202;28;20029;-71
2023/07/08 00:02:44;;;;;;;26.00;24.05;;;16.00;64.00;;;;;;5051973;28;20025;-72
2023/07/08 00:05:12;;;;;;;29.17;27.17;;;15.80;65.40;;;;;;5050024;28;20037;-73
2023/07/08 00:07:39;;;;;;;25.48;23.80;;;15.80;66.00;;;;;;5051408;28;20119;-73
2023/07/08 00:10:18;;;;;;;26.42;24.33;;;15.70;65.40;;;;;;5030219;28;20033;-73
2023/07/08 00:12:47;;;;;;;28.15;25.98;;;15.70;64.80;;;;;;5050637;28;20057;-73
2023/07/08 00:15:13;;;;;;;26.33;23.98;;;15.70;66.00;;;;;;5050490;28;20079;-73
2023/07/08 00:17:39;;;;;;;26.30;24.50;;;15.70;64.20;;;;;;5049933;28;20032;-72
2023/07/08 00:20:20;;;;;;;24.92;22.95;;;15.70;66.10;;;;;;5048727;28;20112;-72
2023/07/08 00:22:46;;;;;;;26.00;23.88;;;15.60;66.70;;;;;;5051319;28;20039;-73
2023/07/08 00:25:19;;;;;;;23.85;21.90;;;15.50;66.90;;;;;;5049631;28;20112;-73
2023/07/08 00:27:47;;;;;;;23.63;21.73;;;15.60;64.40;;;;;;5050002;28;20036;-72
2023/07/08 00:30:31;;;;;;;24.70;22.90;;;15.60;64.30;;;;;;5039267;28;20049;-73
2023/07/08 00:32:58;;;;;;;24.05;22.27;;;15.70;63.30;;;;;;5031584;28;20161;-72
2023/07/08 00:35:38;;;;;;;26.05;24.40;;;15.70;62.90;;;;;;5031733;28;20037;-73
2023/07/08 00:38:30;;;;;;;;;;;15.80;62.00;;;;;;5034330;28;20074;-73
2023/07/08 00:41:04;;;;;;;23.83;22.02;;;15.80;62.30;;;;;;5028752;28;19924;-72
2023/07/08 00:43:37;;;;;;;28.88;26.80;;;16.00;61.60;;;;;;5024212;28;20044;-73
2023/07/08 00:46:27;;;;;;;28.52;26.50;;;16.40;58.90;;;;;;5032383;28;20044;-73
2023/07/08 00:49:07;;;;;;;28.70;26.50;;;16.40;59.30;;;;;;5035174;28;20495;-73
2023/07/08 00:51:34;;;;;;;33.60;31.42;;;16.50;60.00;;;;;;5035015;28;20403;-73
2023/07/08 00:54:00;;;;;;;28.80;27.02;;;16.50;58.20;;;;;;5036252;28;20805;-73
2023/07/08 00:56:33;;;;;;;32.45;30.15;;;16.70;59.60;;;;;;5036166;28;20038;-71
2023/07/08 00:59:17;;;;;;;29.95;27.98;;;16.80;57.40;;;;;;5035850;28;20124;-73
2023/07/08 01:01:44;;;;;;;35.05;32.95;;;16.80;57.40;;;;;;5033896;28;20037;-73
2023/07/08 01:04:14;;;;;;;32.40;30.35;;;16.90;56.30;;;;;;5031942;28;20040;-73
2023/07/08 01:06:46;;;;;;;32.65;30.55;;;16.80;57.30;;;;;;5033042;28;20344;-72
2023/07/08 01:09:15;;;;;;;36.10;33.80;;;16.80;57.00;;;;;;5032335;28;20390;-73
2023/07/08 01:11:41;;;;;;;32.13;30.02;;;16.80;57.00;;;;;;5032549;28;20039;-73
2023/07/08 01:14:10;;;;;;;32.25;30.38;;;16.90;56.20;;;;;;5036987;28;20017;-73
2023/07/08 01:16:36;;;;;;;26.95;25.15;;;16.90;57.40;;;;;;5032141;28;20514;-73
2023/07/08 01:19:04;;;;;;;32.78;30.83;;;16.90;56.00;;;;;;5031825;28;20112;-73
2023/07/08 01:21:34;;;;;;;33.05;30.75;;;16.80;57.70;;;;;;5012059;28;20665;-73
2023/07/08 01:24:02;;;;;;;31.48;29.30;;;16.90;57.20;;;;;;5028468;28;20618;-73
2023/07/08 01:26:30;;;;;;;28.50;26.52;;;16.80;56.90;;;;;;5035516;28;20052;-73
2023/07/08 01:28:56;;;;;;;28.67;26.88;;;16.50;59.60;;;;;;5033812;28;20029;-73
2023/07/08 01:31:23;;;;;;;33.13;31.02;;;16.80;56.90;;;;;;5071575;28;20055;-73
2023/07/08 01:33:50;;;;;;;26.85;25.00;;;16.70;57.40;;;;;;5074231;28;20144;-73
2023/07/08 01:36:17;;;;;;;27.98;25.85;;;16.80;56.70;;;;;;5074940;28;20556;-73
2023/07/08 01:38:44;;;;;;;28.23;26.35;;;16.80;61.00;;;;;;5076530;28;20024;-73
2023/07/08 01:41:16;;;;;;;25.92;24.13;;;16.70;62.10;;;;;;5074481;28;20041;-73
2023/07/08 01:43:42;;;;;;;28.55;26.58;;;16.70;62.20;;;;;;5070166;28;20067;-73
2023/07/08 01:46:27;;;;;;;26.92;24.90;;;16.60;61.90;;;;;;5074993;28;20028;-73
2023/07/08 01:48:57;;;;;;;23.77;22.05;;;16.60;62.60;;;;;;5074330;28;20382;-72
2023/07/08 01:51:25;;;;;;;24.33;22.17;;;16.50;63.70;;;;;;5068794;28;20060;-73
2023/07/08 01:53:50;;;;;;;23.13;21.20;;;16.40;63.60;;;;;;5054997;28;20110;-73
2023/07/08 01:56:16;;;;;;;21.52;19.75;;;16.40;65.50;;;;;;5071995;28;20048;-73
2023/07/08 01:58:42;;;;;;;21.70;19.77;;;16.40;65.70;;;;;;5077868;28;20057;-73
2023/07/08 02:01:09;;;;;;;21.58;19.67;;;16.30;68.10;;;;;;5078491;28;20032;-73
2023/07/08 02:03:35;;;;;;;21.38;19.45;;;16.20;68.50;;;;;;5074530;28;20408;-73
2023/07/08 02:06:01;;;;;;;22.88;20.45;;;16.20;69.20;;;;;;5074158;28;20513;-73
2023/07/08 02:08:27;;;;;;;20.33;18.58;;;16.20;68.50;;;;;;5085493;28;20040;-73
2023/07/08 02:10:55;;;;;;;19.63;17.80;;;16.20;69.20;;;;;;5077356;28;20422;-73
2023/07/08 02:13:22;;;;;;;19.85;17.90;;;16.10;67.20;;;;;;5074188;28;20078;-73
2023/07/08 02:15:48;;;;;;;20.38;18.13;;;16.00;66.80;;;;;;5071323;28;20071;-73
2023/07/08 02:18:14;;;;;;;21.30;19.35;;;16.10;65.50;;;;;;5077653;28;20048;-73
2023/07/08 02:20:39;;;;;;;67.75;61.50;;;16.20;62.90;;;;;;5076380;28;20028;-73
2023/07/08 02:23:05;;;;;;;25.23;23.15;;;16.40;60.60;;;;;;5059782;28;20043;-73
2023/07/08 02:25:30;;;;;;;26.75;24.65;;;16.60;58.80;;;;;;5076395;28;20041;-73
2023/07/08 02:27:57;;;;;;;24.60;22.83;;;16.80;58.80;;;;;;5059189;28;20029;-73
2023/07/08 02:30:24;;;;;;;28.15;26.05;;;16.80;58.30;;;;;;5077637;28;20119;-73
2023/07/08 02:32:56;;;;;;;27.67;25.77;;;17.00;57.00;;;;;;5076392;28;20394;-73
2023/07/08 02:35:27;;;;;;;20.92;19.15;;;17.10;59.10;;;;;;5075144;28;20037;-73
2023/07/08 02:37:53;;;;;;;;;;;17.00;60.50;;;;;;5084100;28;20082;-73
2023/07/08 02:40:19;;;;;;;25.20;16.90;;;16.80;62.00;;;;;;5078510;28;19916;-72
2023/07/08 02:42:45;;;;;;;18.23;16.38;;;16.60;75.00;;;;;;5092197;28;20490;-72
2023/07/08 02:45:12;;;;;;;19.83;18.15;;;15.40;92.00;;;;;;5097415;28;20086;-73
2023/07/08 02:47:37;;;;;;;17.63;16.02;;;15.20;96.70;;;;;;5078105;28;20036;-73
2023/07/08 02:50:04;;;;;;;17.35;15.63;;;15.00;97.20;;;;;;5081452;28;20046;-72
2023/07/08 02:52:30;;;;;;;18.73;17.05;;;15.00;98.20;;;;;;5081001;28;20039;-72
2023/07/08 02:54:55;;;;;;;17.58;15.98;;;14.80;98.40;;;;;;5073304;28;20394;-72
2023/07/08 02:57:21;;;;;;;18.33;16.70;;;14.90;99.90;;;;;;5080560;28;20036;-72
2023/07/08 02:59:47;;;;;;;18.33;16.52;;;14.80;99.90;;;;;;5076170;28;20036;-72
2023/07/08 03:02:12;;;;;;;18.65;16.40;;;14.90;99.90;;;;;;5074555;28;20124;-72
2023/07/08 03:04:38;;;;;;;17.02;15.52;;;14.90;99.90;;;;;;5080417;28;20482;-72
2023/07/08 03:07:05;;;;;;;20.30;18.42;;;14.90;99.90;;;;;;5077640;28;20116;-72
2023/07/08 03:09:32;;;;;;;19.20;17.42;;;15.00;99.90;;;;;;5074484;28;20055;-72
2023/07/08 03:11:58;;;;;;;19.80;18.30;;;15.20;99.90;;;;;;5076144;28;20098;-73
2023/07/08 03:14:24;;;;;;;20.88;19.10;;;15.20;99.90;;;;;;5075687;28;20112;-72
2023/07/08 03:16:50;;;;;;;20.00;18.10;;;15.30;99.90;;;;;;5074588;28;20460;-72
2023/07/08 03:19:17;;;;;;;19.52;17.83;;;15.00;99.90;;;;;;5086874;28;20036;-72
2023/07/08 03:21:43;;;;;;;18.42;16.65;;;14.90;99.90;;;;;;5076657;28;20032;-72
2023/07/08 03:24:13;;;;;;;26.90;18.58;;;15.00;99.90;;;;;;5076361;28;20050;-72
2023/07/08 03:26:39;;;;;;;19.92;17.85;;;15.00;99.90;;;;;;5073405;28;20490;-72
2023/07/08 03:29:05;;;;;;;23.75;21.30;;;14.90;99.90;;;;;;5076815;28;20527;-73
2023/07/08 03:31:31;;;;;;;24.30;20.85;;;14.80;99.90;;;;;;5076535;28;20036;-72
2023/07/08 03:33:56;;;;;;;23.48;21.20;;;14.70;99.90;;;;;;5076050;28;20039;-73
2023/07/08 03:36:22;;;;;;;23.88;21.20;;;14.60;99.90;;;;;;5077382;28;20080;-73
2023/07/08 03:38:53;;;;;;;22.00;20.35;;;14.60;99.60;;;;;;5072443;28;20425;-73
2023/07/08 03:41:19;;;;;;;20.50;18.65;;;14.80;98.20;;;;;;5075524;28;20500;-72
2023/07/08 03:43:45;;;;;;;20.15;18.55;;;15.00;99.20;;;;;;5075958;28;20383;-73
2023/07/08 03:46:12;;;;;;;20.95;19.55;;;15.10;99.40;;;;;;5075193;28;20040;-72
2023/07/08 03:48:38;;;;;;;20.33;18.77;;;15.20;99.90;;;;;;5053230;28;20086;-72
2023/07/08 03:51:07;;;;;;;19.27;17.83;;;15.20;99.90;;;;;;5076598;28;20501;-72
2023/07/08 03:53:33;;;;;;;16.85;15.68;;;15.20;99.90;;;;;;5072267;28;20073;-72
2023/07/08 03:55:58;;;;;;;24.15;22.55;;;15.40;99.90;;;;;;5077554;28;20454;-72
2023/07/08 03:58:24;;;;;;;22.42;20.27;;;15.20;99.90;;;;;;5075670;28;20048;-72
2023/07/08 04:00:49;;;;;;;24.00;22.20;;;15.20;99.90;;;;;;5077359;28;20036;-72
2023/07/08 04:03:15;;;;;;;20.85;19.05;;;15.00;99.90;;;;;;5053246;28;20029;-73
2023/07/08 04:05:41;;;;;;;21.52;19.27;;;14.70;99.90;;;;;;5074930;28;20032;-73
2023/07/08 04:08:06;;;;;;;22.63;20.88;;;14.60;99.90;;;;;;5080303;28;20028;-72
2023/07/08 04:10:32;;;;;;;24.10;22.15;;;14.50;97.30;;;;;;5073542;28;20068;-71
2023/07/08 04:12:58;;;;;;;22.65;20.52;;;14.50;96.70;;;;;;5072110;28;20033;-73
2023/07/08 04:15:25;;;;;;;21.00;18.45;;;14.40;98.30;;;;;;5078711;28;20433;-72
2023/07/08 04:17:51;;;;;;;23.27;20.95;;;14.40;98.60;;;;;;5072700;28;20090;-72
2023/07/08 04:20:18;;;;;;;21.35;19.45;;;14.30;98.80;;;;;;5075432;28;20053;-72
2023/07/08 04:22:44;;;;;;;21.48;19.58;;;14.30;97.60;;;;;;5090738;28;20534;-72
2023/07/08 04:25:12;;;;;;;23.40;21.33;;;14.50;99.90;;;;;;5078128;28;20043;-72
2023/07/08 04:27:39;;;;;;;22.52;20.08;;;14.40;99.30;;;;;;5076782;28;20104;-72
2023/07/08 04:30:06;;;;;;;19.67;18.10;;;14.50;99.60;;;;;;5074373;28;20044;-72
2023/07/08 04:32:33;;;;;;;21.45;19.85;;;14.50;94.40;;;;;;5075890;28;20037;-72
2023/07/08 04:34:59;;;;;;;21.90;20.10;;;14.60;99.90;;;;;;5079526;28;20102;-72
2023/07/08 04:37:25;;;;;;;21.52;19.38;;;14.50;99.90;;;;;;5072535;28;20074;-72
2023/07/08 04:39:51;;;;;;;22.95;19.25;;;14.50;99.90;;;;;;5077608;28;20506;-72
2023/07/08 04:42:17;;;;;;;23.33;21.15;;;14.60;99.90;;;;;;5076631;28;20039;-72
2023/07/08 04:44:43;;;;;;;21.20;19.25;;;14.70;99.90;;;;;;5075612;28;20040;-72
2023/07/08 04:47:12;;;;;;;20.65;18.50;;;14.80;99.20;;;;;;5075812;28;20039;-72
2023/07/08 04:49:37;;;;;;;19.55;17.05;;;14.80;99.80;;;;;;5075951;28;20653;-73
2023/07/08 04:52:03;;;;;;;30.20;28.25;;;14.80;98.40;;;;;;5088085;28;20112;-72
2023/07/08 04:54:29;;;;;;;19.35;17.55;;;14.80;97.70;;;;;;5077488;28;20028;-72
2023/07/08 04:56:55;;;;;;;22.63;20.92;;;14.90;99.90;;;;;;5072497;28;20028;-72
2023/07/08 04:59:23;;;;;;;20.55;18.80;;;15.00;99.90;;;;;;5078216;28;20074;-72
2023/07/08 05:01:49;;;;;;;19.58;17.98;;;15.10;99.90;;;;;;5073698;28;20112;-72
2023/07/08 05:04:16;;;;;;;19.40;17.80;;;15.20;99.90;;;;;;5075172;28;20119;-72
2023/07/08 05:06:42;;;;;;;21.45;19.63;;;15.30;99.90;;;;;;5078685;28;20073;-72
2023/07/08 05:09:09;;;;;;;19.20;17.55;;;15.40;99.90;;;;;;5073712;28;20489;-72
2023/07/08 05:11:35;;;;;;;19.23;17.33;;;15.50;99.90;;;;;;5072067;28;20028;-73
2023/07/08 05:14:03;;;;;;;17.27;15.95;;;15.60;99.90;;;;;;5076355;28;20561;-72
2023/07/08 05:16:28;;;;;;;19.45;17.83;;;15.60;99.90;;;;;;5070622;28;20024;-72
2023/07/08 05:18:54;;;;;;;19.00;17.33;;;15.70;99.90;;;;;;5074970;28;20089;-72
2023/07/08 05:21:20;;;;;;;20.90;19.02;;;15.70;99.90;;;;;;5074116;28;20036;-72
2023/07/08 05:23:49;;;;;;;20.63;18.73;;;15.70;99.90;;;;;;5075746;28;20148;-72
2023/07/08 05:26:15;;;;;;;19.05;17.27;;;15.90;99.90;;;;;;5073856;28;20482;-72
2023/07/08 05:28:41;;;;;;;20.58;18.95;;;16.00;99.90;;;;;;5075997;28;20712;-72
2023/07/08 05:31:08;;;;;;;19.13;17.63;;;16.10;99.90;;;;;;5070844;28;20044;-73
2023/07/08 05:33:34;;;;;;;20.30;18.60;;;16.20;99.90;;;;;;5076206;28;20028;-72
2023/07/08 05:36:00;;;;;;;18.55;16.98;;;16.20;98.70;;;;;;5074786;28;20113;-72
2023/07/08 05:38:26;;;;;;;21.08;19.60;;;16.20;98.50;;;;;;5075939;28;20116;-72
2023/07/08 05:40:55;;;;;;;19.92;18.27;;;16.30;99.90;;;;;;5071655;28;20115;-72
2023/07/08 05:43:20;;;;;;;19.42;17.92;;;16.40;99.90;;;;;;5073003;28;20798;-72
2023/07/08 05:45:47;;;;;;;16.02;14.70;;;16.30;99.90;;;;;;5077364;28;20036;-72
2023/07/08 05:48:12;;;;;;;15.75;14.18;;;16.30;98.40;;;;;;5069899;28;20048;-71
2023/07/08 05:50:39;;;;;;;15.68;14.13;;;16.40;99.90;;;;;;5077141;28;20498;-72
2023/07/08 05:53:05;;;;;;;19.70;18.27;;;16.50;99.10;;;;;;5073972;28;20112;-72
2023/07/08 05:55:32;;;;;;;17.30;15.80;;;16.60;99.90;;;;;;5076083;28;20115;-72
2023/07/08 05:57:58;;;;;;;15.15;13.90;;;16.60;99.90;;;;;;5078213;28;20021;-72
2023/07/08 06:00:23;;;;;;;17.30;15.98;;;16.70;99.00;;;;;;5076423;28;20044;-72
2023/07/08 06:02:49;;;;;;;15.38;14.07;;;16.90;99.90;;;;;;5080082;28;20031;-72
2023/07/08 06:05:15;;;;;;;14.93;13.43;;;17.00;98.50;;;;;;5080901;28;20046;-72
2023/07/08 06:07:40;;;;;;;16.13;14.82;;;17.20;99.80;;;;;;5073783;28;20486;-72
2023/07/08 06:10:07;;;;;;;15.27;13.73;;;17.30;97.20;;;;;;5081757;28;20037;-72
2023/07/08 06:12:33;;;;;;;15.90;14.40;;;17.50;98.20;;;;;;5080474;28;20071;-73
2023/07/08 06:14:58;;;;;;;16.35;14.77;;;17.60;97.20;;;;;;5074352;28;20051;-72
2023/07/08 06:17:24;;;;;;;16.33;14.60;;;17.80;90.50;;;;;;5079402;28;20029;-73
2023/07/08 06:19:50;;;;;;;15.02;13.60;;;18.10;82.50;;;;;;5076844;28;20032;-72
2023/07/08 06:22:16;;;;;;;15.82;14.45;;;18.30;76.80;;;;;;5076463;28;20077;-72
2023/07/08 06:24:41;;;;;;;15.50;14.30;;;18.40;77.70;;;;;;5078906;28;20500;-72
2023/07/08 06:27:09;;;;;;;17.13;15.38;;;18.60;76.70;;;;;;5073875;28;20505;-73
2023/07/08 06:29:35;;;;;;;17.55;16.05;;;18.60;75.70;;;;;;5076559;28;20596;-72
2023/07/08 06:32:02;;;;;;;16.63;15.23;;;18.70;73.80;;;;;;5078495;28;20060;-73
2023/07/08 06:34:27;;;;;;;16.90;15.20;;;18.70;71.90;;;;;;5080134;28;20092;-73
2023/07/08 06:36:53;;;;;;;16.60;15.18;;;18.80;71.80;;;;;;5070475;28;20428;-72
2023/07/08 06:39:19;;;;;;;16.98;14.85;;;18.90;72.60;;;;;;5077424;28;20040;-70
2023/07/08 06:41:45;;;;;;;16.50;15.05;;;19.00;73.90;;;;;;5072534;28;20166;-70
2023/07/08 06:44:11;;;;;;;16.02;14.63;;;19.10;72.10;;;;;;5072227;28;20143;-71
2023/07/08 06:46:37;;;;;;;16.55;15.13;;;19.10;71.10;;;;;;5075130;28;20494;-70
2023/07/08 06:49:03;;;;;;;16.98;15.43;;;19.10;72.20;;;;;;5081201;28;20033;-70
2023/07/08 06:51:29;;;;;;;16.52;15.10;;;19.00;71.90;;;;;;5074720;28;20739;-70
2023/07/08 06:53:55;;;;;;;17.42;16.02;;;19.20;71.30;;;;;;5072519;28;20044;-70
2023/07/08 06:56:21;;;;;;;19.20;17.85;;;19.30;71.10;;;;;;5088236;28;20430;-70
2023/07/08 06:58:46;;;;;;;16.30;15.00;;;19.30;71.20;;;;;;5071838;28;20033;-72
2023/07/08 07:01:12;;;;;;;17.70;16.17;;;19.40;70.70;;;;;;5070465;28;20032;-69
2023/07/08 07:03:39;;;;;;;16.25;15.10;;;19.50;71.60;;;;;;5073016;28;20025;-70
2023/07/08 07:06:04;;;;;;;16.60;15.25;;;19.50;72.80;;;;;;5071922;28;20028;-70
2023/07/08 07:08:30;;;;;;;16.98;15.57;;;19.70;70.70;;;;;;5071697;28;20103;-70
2023/07/08 07:10:57;;;;;;;19.42;17.85;;;19.70;69.30;;;;;;5069940;28;20148;-70
2023/07/08 07:13:23;;;;;;;16.85;15.23;;;19.70;69.70;;;;;;5089101;28;20556;-70
2023/07/08 07:15:49;;;;;;;18.05;16.42;;;19.80;69.20;;;;;;5078034;28;20040;-71
2023/07/08 07:18:14;;;;;;;17.35;15.55;;;19.60;70.60;;;;;;5054617;28;20162;-70
2023/07/08 07:20:50;;;;;;;17.92;16.23;;;19.90;72.30;;;;;;5075958;28;20123;-71
2023/07/08 07:23:16;;;;;;;17.52;16.02;;;19.90;68.60;;;;;;5075067;28;20059;-70
2023/07/08 07:25:42;;;;;;;19.02;17.45;;;20.20;68.90;;;;;;5070902;28;20457;-71
2023/07/08 07:28:08;;;;;;;19.52;17.55;;;20.50;67.80;;;;;;5090050;28;20032;-71
2023/07/08 07:30:34;;;;;;;17.38;15.70;;;20.60;68.90;;;;;;5074999;28;20045;-70
2023/07/08 07:33:00;;;;;;;18.08;16.20;;;20.70;67.20;;;;;;5076393;28;20028;-70
2023/07/08 07:35:26;;;;;;;20.88;16.65;;;20.90;65.90;;;;;;5059884;28;20062;-69
2023/07/08 07:37:51;;;;;;;18.25;16.85;;;21.00;68.80;;;;;;5071243;28;20382;-69
2023/07/08 07:40:17;;;;;;;18.55;16.60;;;21.20;66.00;;;;;;5090905;28;20399;-69
2023/07/08 07:42:45;;;;;;;18.92;17.10;;;21.10;69.30;;;;;;5072857;28;20067;-69
2023/07/08 07:45:11;;;;;;;17.95;16.50;;;21.20;66.00;;;;;;5075628;28;20085;-69
2023/07/08 07:47:37;;;;;;;19.65;17.88;;;21.40;66.00;;;;;;5077166;28;20074;-69
2023/07/08 07:50:08;;;;;;;18.95;17.23;;;21.60;65.40;;;;;;5073722;28;20024;-68
2023/07/08 07:52:34;;;;;;;;;;;21.60;65.80;;;;;;5076288;28;20024;-68
2023/07/08 07:54:59;;;;;;;18.80;17.38;;;21.70;65.80;;;;;;5076059;28;19919;-68
2023/07/08 07:57:26;;;;;;;17.77;16.42;;;21.90;63.20;;;;;;5072768;28;20032;-69
2023/07/08 07:59:51;;;;;;;19.35;17.92;;;22.00;63.10;;;;;;5076217;28;20056;-68
2023/07/08 08:02:18;;;;;;;20.00;18.40;;;21.90;67.50;;;;;;5074540;28;20063;-69
2023/07/08 08:04:44;;;;;;;22.63;21.02;;;22.00;60.90;;;;;;5076102;28;20460;-69
2023/07/08 08:07:09;;;;;;;18.13;16.75;;;22.10;61.30;;;;;;5076377;28;20119;-69
2023/07/08 08:09:36;;;;;;;18.83;17.17;;;22.30;65.10;;;;;;5075306;28;20038;-69
2023/07/08 08:12:03;;;;;;;21.45;19.48;;;22.80;63.00;;;;;;5077744;28;20040;-72
2023/07/08 08:14:29;;;;;;;24.67;22.88;;;23.10;62.00;;;;;;5071268;28;20036;-69
2023/07/08 08:16:54;;;;;;;20.98;19.42;;;23.50;60.40;;;;;;5070987;28;20029;-69
2023/07/08 08:19:20;;;;;;;24.25;22.75;;;23.30;61.30;;;;;;5072941;28;20063;-69
2023/07/08 08:21:46;;;;;;;19.25;17.95;;;23.30;60.00;;;;;;5073890;28;20077;-69
2023/07/08 08:24:12;;;;;;;23.42;21.65;;;23.30;59.00;;;;;;5070702;28;20727;-69
2023/07/08 08:26:37;;;;;;;26.08;24.23;;;23.00;61.10;;;;;;5074986;28;20039;-71
2023/07/08 08:29:03;;;;;;;16.60;15.38;;;22.80;60.00;;;;;;5071884;28;20036;-69
2023/07/08 08:31:31;;;;;;;22.15;20.15;;;22.80;58.90;;;;;;5047975;28;20044;-69
2023/07/08 08:33:57;;;;;;;23.92;22.10;;;22.80;60.90;;;;;;5053062;28;20039;-72
2023/07/08 08:36:22;;;;;;;24.63;23.02;;;22.90;61.60;;;;;;5051994;28;20091;-72
2023/07/08 08:38:49;;;;;;;18.25;16.70;;;22.80;61.70;;;;;;5052259;28;20024;-70
2023/07/08 08:41:19;;;;;;;29.60;27.67;;;22.90;59.80;;;;;;5055362;28;20455;-72
2023/07/08 08:43:47;;;;;;;18.40;17.10;;;23.30;60.90;;;;;;5040163;28;20028;-71
2023/07/08 08:46:18;;;;;;;20.90;19.50;;;23.40;59.20;;;;;;5054005;28;20128;-73
2023/07/08 08:48:58;;;;;;;22.58;20.83;;;23.30;59.10;;;;;;5054799;28;20029;-75
2023/07/08 08:51:26;;;;;;;22.50;21.25;;;23.20;58.40;;;;;;5051192;28;20033;-74
2023/07/08 08:53:55;;;;;;;26.98;25.38;;;23.30;61.20;;;;;;5067438;28;20037;-77
2023/07/08 08:56:27;;;;;;;26.90;25.20;;;23.70;60.20;;;;;;5057233;28;20541;-76
2023/07/08 08:59:02;;;;;;;24.83;23.33;;;23.60;61.30;;;;;;5046782;28;20044;-75
2023/07/08 09:01:28;;;;;;;24.63;23.20;;;23.50;60.50;;;;;;5040486;28;20028;-78
2023/07/08 09:03:59;;;;;;;21.33;19.70;;;23.30;60.10;;;;;;5047715;28;20116;-76
2023/07/08 09:06:30;;;;;;;23.58;22.23;;;23.00;59.20;;;;;;5047764;28;20124;-76
2023/07/08 09:09:01;;;;;;;21.40;19.90;;;23.20;60.10;;;;;;5047350;28;20025;-76
2023/07/08 09:11:28;;;;;;;30.30;28.60;;;23.10;58.70;;;;;;5046741;28;20410;-76
2023/07/08 09:13:54;;;;;;;22.92;21.42;;;22.70;58.80;;;;;;5048481;28;20104;-76
2023/07/08 09:16:43;;;;;;;22.27;20.40;;;22.70;59.80;;;;;;5051580;28;20029;-76
2023/07/08 09:19:11;;;;;;;26.92;25.25;;;22.80;60.50;;;;;;5046948;28;20036;-76
2023/07/08 09:21:56;;;;;;;31.38;29.80;;;23.00;61.30;;;;;;5051230;28;20032;-76
2023/07/08 09:24:34;;;;;;;32.40;31.00;;;23.60;59.20;;;;;;5048856;28;20117;-74
2023/07/08 09:27:01;;;;;;;35.63;33.70;;;24.00;60.50;;;;;;5045445;28;20044;-75
2023/07/08 09:29:28;;;;;;;25.63;24.23;;;24.30;55.10;;;;;;5047737;28;20048;-77
2023/07/08 09:31:54;;;;;;;26.83;25.48;;;25.20;54.30;;;;;;5047479;28;20395;-76
2023/07/08 09:34:37;;;;;;;92.20;88.60;;;25.60;50.40;;;;;;5046986;28;20025;-76
2023/07/08 09:37:03;;;;;;;26.08;24.77;;;24.80;50.60;;;;;;5046664;28;20503;-76
2023/07/08 09:39:30;;;;;;;39.03;37.22;;;24.60;54.40;;;;;;5032101;28;20047;-76
2023/07/08 09:41:55;;;;;;;27.27;25.98;;;24.30;55.30;;;;;;5030404;28;20036;-76
2023/07/08 09:44:29;;;;;;;42.00;40.03;;;24.60;55.00;;;;;;5050780;28;20047;-76
2023/07/08 09:46:58;;;;;;;59.40;56.95;;;24.90;52.60;;;;;;5048458;28;20057;-76
2023/07/08 09:49:36;;;;;;;27.40;26.10;;;25.20;51.60;;;;;;5048787;28;20043;-76
2023/07/08 09:52:04;;;;;;;38.78;36.92;;;26.00;55.70;;;;;;5062911;28;20040;-76
2023/07/08 09:54:32;;;;;;;68.57;65.85;;;26.50;50.30;;;;;;5050049;28;20083;-76
2023/07/08 09:57:11;;;;;;;116.45;112.13;;;27.10;50.40;;;;;;5032141;28;20495;-77
2023/07/08 09:59:47;;;;;;;172.48;166.13;;;27.40;46.00;;;;;;5040464;28;20091;-76
2023/07/08 10:02:29;;;;;;;183.82;177.20;;;26.90;47.70;;;;;;5047841;28;20057;-79
2023/07/08 10:05:01;;;;;;;170.15;163.90;;;27.30;47.40;;;;;;5048286;28;20025;-78
2023/07/08 10:07:30;;;;;;;293.65;282.55;;;27.40;44.40;;;;;;5047020;28;20064;-78
2023/07/08 10:10:01;;;;;;;190.48;183.02;;;27.30;45.30;;;;;;5045669;28;20700;-75
2023/07/08 10:12:27;;;;;;;241.27;232.50;;;27.80;46.00;;;;;;5047817;28;20032;-76
2023/07/08 10:15:02;;;;;;;204.25;196.65;;;28.50;45.20;;;;;;5030952;28;20519;-75
2023/07/08 10:17:29;;;;;;;440.65;422.30;;;28.60;42.30;;;;;;5037800;28;20110;-75
2023/07/08 10:19:55;;;;;;;520.70;496.77;;;28.70;39.80;;;;;;5031061;28;20029;-75
2023/07/08 10:22:46;;;;;;;485.25;463.92;;;28.10;40.70;;;;;;5029203;28;20423;-75
2023/07/08 10:25:36;;;;;;;336.73;323.98;;;28.20;42.80;;;;;;5045526;28;20044;-75
2023/07/08 10:28:21;;;;;;;458.13;438.98;;;28.20;43.30;;;;;;5045886;28;20048;-75
2023/07/08 10:30:59;;;;;;;533.20;508.50;;;28.80;42.10;;;;;;5045001;28;20041;-76
2023/07/08 10:33:52;;;;;;;557.97;531.90;;;28.10;43.20;;;;;;5047935;28;20013;-75
2023/07/08 10:36:26;;;;;;;657.88;624.95;;;28.00;41.10;;;;;;5047268;28;20024;-75
2023/07/08 10:39:10;;;;;;;570.85;544.33;;;27.60;40.60;;;;;;5047724;28;20024;-75
2023/07/08 10:41:38;;;;;;;1568.43;814.70;;;27.70;41.20;;;;;;5067068;28;20025;-75
2023/07/08 10:44:19;;;;;;;514.35;486.77;;;27.70;39.50;;;;;;5049628;28;20025;-75
2023/07/08 10:47:06;;;;;;;619.65;586.75;;;27.90;40.00;;;;;;5050851;28;20041;-75
2023/07/08 10:49:43;;;;;;;323.10;305.20;;;28.50;42.50;;;;;;5051800;28;20032;-76
2023/07/08 10:52:33;;;;;;;1999.90;999.90;;;28.30;40.10;;;;;;5049366;28;20033;-75
2023/07/08 10:55:18;;;;;;;1999.90;999.90;;;28.70;38.60;;;;;;5049110;28;20029;-75
2023/07/08 10:57:55;;;;;;;1999.90;999.90;;;29.00;40.00;;;;;;5050873;28;20147;-75
2023/07/08 11:01:09;;;;;;;1999.90;999.90;;;29.00;38.50;;;;;;5050016;28;20061;-75
2023/07/08 11:03:49;;;;;;;1999.90;999.90;;;28.90;33.80;;;;;;5018129;28;20045;-74
2023/07/08 11:06:28;;;;;;;1999.90;999.90;;;28.90;33.80;;;;;;5047774;28;20037;-75
2023/07/08 11:08:59;;;;;;;1999.90;999.90;;;29.30;32.70;;;;;;5032719;28;20151;-75
2023/07/08 11:11:42;;;;;;;1999.90;999.90;;;30.30;30.30;;;;;;5049587;28;20033;-75
2023/07/08 11:14:19;;;;;;;1999.90;999.90;;;30.60;28.40;;;;;;5048969;28;20033;-76
2023/07/08 11:17:18;;;;;;;1999.90;999.90;;;30.20;29.40;;;;;;5032319;28;20053;-75
2023/07/08 11:19:56;;;;;;;1999.90;999.90;;;29.60;31.00;;;;;;5052375;28;20491;-75
2023/07/08 11:22:22;;;;;;;1999.90;999.90;;;29.50;31.50;;;;;;5065707;28;20127;-75
2023/07/08 11:24:52;;;;;;;1999.90;999.90;;;29.60;34.70;;;;;;5049639;28;20052;-76
2023/07/08 11:27:30;;;;;;;1999.90;999.90;;;29.30;36.70;;;;;;5050128;28;20045;-75
2023/07/08 11:30:09;;;;;;;1999.90;999.90;;;29.00;31.20;;;;;;5049775;28;20087;-75
2023/07/08 11:32:36;;;;;;;1999.90;999.90;;;29.00;31.90;;;;;;5048686;28;20025;-75
2023/07/08 11:35:05;;;;;;;1999.90;999.90;;;28.60;33.80;;;;;;5043861;28;20031;-75
2023/07/08 11:37:31;;;;;;;1999.90;999.90;;;29.00;32.70;;;;;;5050916;28;20036;-74
2023/07/08 11:40:20;;;;;;;1999.90;999.90;;;29.00;35.50;;;;;;5049611;28;20039;-75
2023/07/08 11:42:51;;;;;;;1999.90;999.90;;;28.90;35.70;;;;;;5028387;28;20040;-75
2023/07/08 11:45:17;;;;;;;1999.90;999.90;;;30.40;34.20;;;;;;5049094;28;20024;-75
2023/07/08 11:47:46;;;;;;;1999.90;999.90;;;31.50;34.60;;;;;;5066603;28;20028;-75
2023/07/08 11:50:25;;;;;;;1999.90;999.90;;;30.80;32.60;;;;;;5051479;28;20124;-76
2023/07/08 11:52:53;;;;;;;1999.90;999.90;;;31.50;30.50;;;;;;5048390;28;20104;-79
2023/07/08 11:55:36;;;;;;;1999.90;999.90;;;32.70;31.80;;;;;;5047732;28;20114;-78
2023/07/08 11:58:05;;;;;;;1999.90;999.90;;;32.70;30.90;;;;;;5043636;28;20032;-79
2023/07/08 12:00:33;;;;;;;1999.90;999.90;;;32.90;30.30;;;;;;5031030;28;20044;-79
2023/07/08 12:03:17;;;;;;;1999.90;999.90;;;33.40;30.00;;;;;;5050639;28;20601;-77
2023/07/08 12:05:43;;;;;;;1999.90;999.90;;;32.70;27.50;;;;;;5029706;28;20028;-79
2023/07/08 12:08:14;;;;;;;1999.90;999.90;;;31.40;29.30;;;;;;5042257;28;20043;-79
2023/07/08 12:10:46;;;;;;;1999.90;999.90;;;30.80;29.20;;;;;;5028865;28;20495;-78
2023/07/08 12:13:19;;;;;;;1999.90;999.90;;;30.60;32.20;;;;;;5028476;28;20024;-78
2023/07/08 12:15:45;;;;;;;1999.90;999.90;;;30.30;29.90;;;;;;5047922;28;20063;-78
2023/07/08 12:18:20;;;;;;;1999.90;999.90;;;30.30;33.20;;;;;;5049766;28;20077;-78
2023/07/08 12:20:57;;;;;;;1999.90;999.90;;;30.70;33.10;;;;;;5049012;28;20033;-78
2023/07/08 12:23:25;;;;;;;1999.90;999.90;;;30.70;30.70;;;;;;5031896;28;20844;-78
2023/07/08 12:25:51;;;;;;;1999.90;999.90;;;30.60;28.90;;;;;;5046384;28;20506;-77
2023/07/08 12:28:18;;;;;;;1999.90;999.90;;;31.80;29.60;;;;;;5045438;28;20037;-78
2023/07/08 12:30:48;;;;;;;1999.90;999.90;;;32.90;27.90;;;;;;5046797;28;20045;-77
2023/07/08 12:33:34;;;;;;;1999.90;999.90;;;33.60;27.10;;;;;;5046429;28;20021;-77